createdAt,value
2022-09-28T00:00:27.387Z,0.60
2022-09-28T00:05:31.434Z,0.63
2022-09-28T00:10:36.200Z,0.73
2022-09-28T00:15:39.628Z,0.53
2022-09-28T00:20:43.848Z,0.80
2022-09-28T00:25:48.539Z,0.80
2022-09-28T00:30:55.944Z,0.90
2022-09-28T00:35:59.712Z,0.87
2022-09-28T00:41:05.507Z,1.20
2022-09-28T00:46:14.499Z,1.30
2022-09-28T00:51:19.443Z,1.23
2022-09-28T00:56:26.168Z,1.40
2022-09-28T01:01:29.698Z,1.20
2022-09-28T01:06:34.330Z,1.10
2022-09-28T01:11:39.985Z,1.20
2022-09-28T01:16:48.322Z,1.50
2022-09-28T01:22:28.812Z,2.00
2022-09-28T01:27:36.184Z,1.90
2022-09-28T01:32:44.420Z,2.07
2022-09-28T01:37:52.497Z,2.33
2022-09-28T01:42:59.776Z,2.47
2022-09-28T01:48:06.218Z,2.93
2022-09-28T01:53:12.681Z,2.50
2022-09-28T01:58:20.183Z,2.33
2022-09-28T02:03:25.823Z,2.30
2022-09-28T02:08:37.426Z,2.33
2022-09-28T02:13:44.035Z,1.77
2022-09-28T02:18:48.794Z,2.17
2022-09-28T02:23:56.379Z,2.10
2022-09-28T02:29:01.384Z,2.43
2022-09-28T02:34:05.393Z,2.07
2022-09-28T02:39:14.458Z,1.40
2022-09-28T02:44:30.705Z,1.63
2022-09-28T02:49:38.793Z,1.73
2022-09-28T02:54:57.776Z,1.63
2022-09-28T03:00:05.694Z,1.57
2022-09-28T03:05:14.340Z,0.83
2022-09-28T03:10:20.805Z,1.37
2022-09-28T03:15:27.633Z,1.33
2022-09-28T03:20:33.516Z,1.10
2022-09-28T03:25:37.837Z,1.00
2022-09-28T03:30:43.536Z,1.40
2022-09-28T03:35:47.930Z,1.40
2022-09-28T03:40:55.649Z,1.10
2022-09-28T03:46:01.624Z,1.20
2022-09-28T03:51:09.315Z,1.10
2022-09-28T03:56:13.336Z,0.90
2022-09-28T04:01:19.220Z,1.00
2022-09-28T04:06:24.880Z,0.87
2022-09-28T04:11:38.529Z,1.20
2022-09-28T04:16:55.735Z,1.17
2022-09-28T04:22:01.763Z,1.00
2022-09-28T04:27:22.941Z,1.00
2022-09-28T04:32:27.649Z,1.40
2022-09-28T04:37:31.308Z,0.90
2022-09-28T04:42:35.222Z,0.90
2022-09-28T04:47:40.000Z,1.20
2022-09-28T04:52:59.454Z,0.97
2022-09-28T04:58:05.933Z,1.10
2022-09-28T05:03:11.324Z,1.13
2022-09-28T05:08:35.679Z,1.37
2022-09-28T05:13:41.802Z,1.27
2022-09-28T05:18:47.508Z,1.40
2022-09-28T05:23:50.681Z,1.50
2022-09-28T05:28:55.310Z,1.10
2022-09-28T05:34:00.079Z,1.20
2022-09-28T05:39:04.615Z,1.20
2022-09-28T05:44:08.450Z,1.73
2022-09-28T05:49:14.063Z,1.10
2022-09-28T05:54:17.650Z,0.80
2022-09-28T05:59:23.661Z,0.80
2022-09-28T06:04:29.084Z,1.00
2022-09-28T06:09:32.729Z,0.87
2022-09-28T06:14:49.300Z,1.17
2022-09-28T06:19:56.260Z,0.80
2022-09-28T06:25:10.475Z,0.90
2022-09-28T06:30:15.804Z,0.70
2022-09-28T06:35:21.465Z,0.60
2022-09-28T06:40:25.266Z,1.00
2022-09-28T06:45:29.621Z,0.60
2022-09-28T06:51:02.269Z,0.80
2022-09-28T06:56:13.325Z,1.23
2022-09-28T07:01:16.839Z,1.10
2022-09-28T07:06:35.640Z,1.00
2022-09-28T07:12:10.293Z,1.00
2022-09-28T07:17:47.862Z,1.10
2022-09-28T07:23:14.293Z,1.17
2022-09-28T07:28:59.321Z,1.40
2022-09-28T07:34:24.779Z,1.60
2022-09-28T07:40:03.365Z,1.57
2022-09-28T07:45:10.105Z,1.30
2022-09-28T07:50:13.984Z,1.60
2022-09-28T07:55:36.194Z,1.50
2022-09-28T08:00:52.370Z,1.40
2022-09-28T08:05:59.126Z,1.50
2022-09-28T08:11:07.123Z,2.00
2022-09-28T08:16:38.983Z,1.70
2022-09-28T08:21:49.222Z,1.67
2022-09-28T08:26:59.098Z,1.80
2022-09-28T08:32:10.149Z,1.57
2022-09-28T08:37:55.467Z,1.80
2022-09-28T08:43:25.406Z,1.80
2022-09-28T08:49:20.671Z,2.10
2022-09-28T08:54:40.686Z,2.10
2022-09-28T08:59:53.434Z,2.10
2022-09-28T09:05:06.542Z,2.20
2022-09-28T09:10:38.618Z,2.43
2022-09-28T09:15:51.780Z,2.40
2022-09-28T09:21:12.030Z,2.07
2022-09-28T09:26:24.127Z,2.20
2022-09-28T09:31:39.366Z,2.10
2022-09-28T09:36:48.385Z,2.00
2022-09-28T09:42:15.848Z,2.67
2022-09-28T09:47:51.730Z,1.80
2022-09-28T09:53:03.785Z,2.37
2022-09-28T09:58:10.274Z,2.40
2022-09-28T10:03:22.824Z,2.27
2022-09-28T10:08:27.997Z,2.23
2022-09-28T10:13:32.965Z,1.70
2022-09-28T10:18:41.790Z,2.70
2022-09-28T10:24:16.280Z,2.60
2022-09-28T10:29:22.064Z,2.50
2022-09-28T10:34:31.002Z,2.70
2022-09-28T10:39:51.739Z,2.40
2022-09-28T10:44:57.049Z,2.40
2022-09-28T10:50:20.918Z,2.03
2022-09-28T10:55:30.644Z,2.20
2022-09-28T11:00:35.365Z,2.67
2022-09-28T11:05:58.386Z,2.17
2022-09-28T11:11:08.181Z,1.93
2022-09-28T18:56:18.301Z,2.30
2022-09-28T19:01:30.838Z,2.40
2022-09-28T19:06:35.392Z,2.20
2022-09-28T19:11:41.556Z,2.13
2022-09-28T19:16:46.018Z,2.10
2022-09-28T19:21:51.222Z,2.10
2022-09-28T19:26:58.707Z,2.53
2022-09-28T19:32:08.261Z,2.40
2022-09-28T19:37:12.452Z,2.13
2022-09-28T19:42:18.249Z,2.03
2022-09-28T19:47:24.157Z,2.50
2022-09-28T19:52:32.305Z,2.43
2022-09-28T19:57:39.420Z,2.30
2022-09-28T20:02:45.377Z,2.50
2022-09-28T20:07:50.335Z,2.47
2022-09-28T20:13:00.793Z,2.30
2022-09-28T20:18:10.191Z,2.97
2022-09-28T20:23:14.604Z,3.33
2022-09-28T20:28:20.187Z,2.63
2022-09-28T20:33:28.818Z,2.43
2022-09-28T20:38:33.180Z,3.80
2022-09-28T20:43:42.438Z,2.73
2022-09-28T20:48:49.938Z,2.90
2022-09-28T20:53:57.343Z,2.40
2022-09-28T20:59:06.837Z,2.50
2022-09-28T21:04:13.468Z,2.97
2022-09-28T21:09:19.792Z,2.70
2022-09-28T21:14:26.907Z,2.43
2022-09-28T21:19:32.841Z,2.70
2022-09-28T21:24:44.481Z,2.30
2022-09-28T21:29:51.307Z,2.60
2022-09-28T21:34:57.547Z,2.80
2022-09-28T21:40:05.506Z,2.20
2022-09-28T21:45:10.954Z,2.40
2022-09-28T21:50:14.670Z,2.07
2022-09-28T21:55:18.519Z,2.67
2022-09-28T22:00:24.739Z,2.00
2022-09-28T22:05:28.252Z,2.00
2022-09-28T22:10:31.634Z,2.17
2022-09-28T22:15:36.773Z,2.30
2022-09-28T22:20:40.821Z,2.30
2022-09-28T22:25:44.167Z,2.37
2022-09-28T22:30:49.236Z,2.20
2022-09-28T22:35:53.058Z,2.20
2022-09-28T22:40:58.422Z,2.00
2022-09-28T22:46:04.783Z,1.87
2022-09-28T22:51:08.608Z,1.70
2022-09-28T22:56:17.543Z,1.80
2022-09-28T23:01:23.973Z,1.80
2022-09-28T23:06:29.170Z,1.77
2022-09-28T23:11:32.863Z,1.83
2022-09-28T23:16:37.611Z,1.67
2022-09-28T23:21:41.429Z,1.80
2022-09-28T23:26:45.337Z,1.90
2022-09-28T23:31:50.007Z,2.27
2022-09-28T23:36:54.041Z,2.00
2022-09-28T23:41:59.054Z,1.70
2022-09-28T23:47:03.928Z,2.00
2022-09-28T23:52:07.507Z,2.00
2022-09-28T23:57:10.847Z,2.20
